createdAt,value
2023-08-18T00:00:14.832Z,4.55
2023-08-18T00:02:44.309Z,3.47
2023-08-18T00:05:11.232Z,4.05
2023-08-18T00:07:38.206Z,4.28
2023-08-18T00:10:05.505Z,3.67
2023-08-18T00:12:33.641Z,4.05
2023-08-18T00:15:00.908Z,4.05
2023-08-18T00:17:28.158Z,3.30
2023-08-18T00:19:55.253Z,4.03
2023-08-18T00:22:22.157Z,4.72
2023-08-18T00:24:49.237Z,4.63
2023-08-18T00:27:16.162Z,3.90
2023-08-18T00:29:43.242Z,4.95
2023-08-18T00:32:10.516Z,4.00
2023-08-18T00:34:38.825Z,3.53
2023-08-18T00:37:05.695Z,3.67
2023-08-18T00:39:32.593Z,3.65
2023-08-18T00:41:59.524Z,4.68
2023-08-18T00:44:27.133Z,4.25
2023-08-18T00:46:54.918Z,4.72
2023-08-18T00:49:22.983Z,3.33
2023-08-18T00:51:50.285Z,3.00
2023-08-18T00:54:18.121Z,3.72
2023-08-18T00:56:48.260Z,4.05
2023-08-18T00:59:15.373Z,3.40
2023-08-18T01:01:43.878Z,4.00
2023-08-18T01:04:13.807Z,4.28
2023-08-18T01:06:41.469Z,3.75
2023-08-18T01:09:08.792Z,4.45
2023-08-18T01:12:15.885Z,3.20
2023-08-18T01:15:08.979Z,3.85
2023-08-18T01:17:46.308Z,3.65
2023-08-18T01:20:14.549Z,4.35
2023-08-18T01:22:42.866Z,4.05
2023-08-18T01:25:09.820Z,3.17
2023-08-18T01:27:36.732Z,3.60
2023-08-18T01:30:05.797Z,3.42
2023-08-18T01:32:47.596Z,3.85
2023-08-18T01:35:17.224Z,4.72
2023-08-18T01:37:45.770Z,4.80
2023-08-18T01:40:17.324Z,4.15
2023-08-18T01:45:12.654Z,5.80
2023-08-18T01:47:39.714Z,3.30
2023-08-18T01:50:07.133Z,3.75
2023-08-18T01:52:34.075Z,4.00
2023-08-18T01:55:02.245Z,4.05
2023-08-18T01:57:29.409Z,3.63
2023-08-18T01:59:57.657Z,3.17
2023-08-18T02:02:24.620Z,3.78
2023-08-18T02:04:51.506Z,3.20
2023-08-18T02:07:18.438Z,3.90
2023-08-18T02:09:45.362Z,4.32
2023-08-18T02:12:12.257Z,4.40
2023-08-18T02:14:39.077Z,3.95
2023-08-18T02:17:06.142Z,3.35
2023-08-18T02:19:33.038Z,6.10
2023-08-18T02:21:59.924Z,4.57
2023-08-18T02:24:26.877Z,3.03
2023-08-18T02:26:53.868Z,4.30
2023-08-18T02:29:20.909Z,3.75
2023-08-18T02:31:48.705Z,3.45
2023-08-18T02:34:16.425Z,3.00
2023-08-18T02:36:43.319Z,4.25
2023-08-18T02:39:10.397Z,6.07
2023-08-18T02:41:37.346Z,3.67
2023-08-18T02:44:04.722Z,3.97
2023-08-18T02:46:31.597Z,3.83
2023-08-18T02:48:58.443Z,4.88
2023-08-18T02:51:25.316Z,4.70
2023-08-18T02:53:52.194Z,4.25
2023-08-18T02:56:19.171Z,3.13
2023-08-18T02:58:46.075Z,3.80
2023-08-18T03:01:13.286Z,2.88
2023-08-18T03:03:40.323Z,3.25
2023-08-18T03:06:09.963Z,3.35
2023-08-18T03:08:38.008Z,4.22
2023-08-18T03:11:06.153Z,3.50
2023-08-18T03:13:33.655Z,3.58
2023-08-18T03:16:01.291Z,4.10
2023-08-18T03:18:28.466Z,3.78
2023-08-18T03:21:01.564Z,3.72
2023-08-18T03:23:30.630Z,3.78
2023-08-18T03:26:06.050Z,3.50
2023-08-18T03:28:37.381Z,3.60
2023-08-18T03:31:09.074Z,3.53
2023-08-18T03:33:37.298Z,3.22
2023-08-18T03:38:34.642Z,3.55
2023-08-18T03:41:08.095Z,3.22
2023-08-18T03:43:36.072Z,3.55
2023-08-18T03:46:30.026Z,3.40
2023-08-18T03:48:59.600Z,3.50
2023-08-18T03:51:28.162Z,3.83
2023-08-18T03:53:55.788Z,3.55
2023-08-18T03:56:22.828Z,3.65
2023-08-18T03:58:49.752Z,3.97
2023-08-18T04:01:17.172Z,4.50
2023-08-18T04:03:46.310Z,3.75
2023-08-18T04:06:14.073Z,3.90
2023-08-18T04:08:44.356Z,3.72
2023-08-18T04:11:12.857Z,3.72
2023-08-18T04:13:40.536Z,3.47
2023-08-18T04:16:07.957Z,3.28
2023-08-18T04:18:35.599Z,3.67
2023-08-18T04:21:04.010Z,3.13
2023-08-18T04:23:31.394Z,3.03
2023-08-18T04:25:58.414Z,3.35
2023-08-18T04:28:25.390Z,4.25
2023-08-18T04:30:52.587Z,3.22
2023-08-18T04:33:36.910Z,3.80
2023-08-18T04:36:05.185Z,4.60
2023-08-18T04:38:33.151Z,3.60
2023-08-18T04:41:04.159Z,3.17
2023-08-18T04:43:32.814Z,3.08
2023-08-18T04:46:00.235Z,3.08
2023-08-18T04:48:27.884Z,3.33
2023-08-18T04:50:55.049Z,3.53
2023-08-18T04:53:21.980Z,3.22
2023-08-18T04:55:48.978Z,4.07
2023-08-18T04:58:16.570Z,4.65
2023-08-18T05:00:44.921Z,3.47
2023-08-18T05:03:13.079Z,4.35
2023-08-18T05:06:10.642Z,4.65
2023-08-18T05:08:41.848Z,3.97
2023-08-18T05:11:11.812Z,3.20
2023-08-18T05:13:42.006Z,3.92
2023-08-18T05:16:09.363Z,4.28
2023-08-18T05:18:37.482Z,3.97
2023-08-18T05:21:04.636Z,3.40
2023-08-18T05:23:32.280Z,3.90
2023-08-18T05:26:01.104Z,4.10
2023-08-18T05:28:33.923Z,4.72
2023-08-18T05:31:01.509Z,5.72
2023-08-18T05:33:29.029Z,4.30
2023-08-18T05:36:00.351Z,3.22
2023-08-18T05:38:28.502Z,5.15
2023-08-18T05:41:14.357Z,6.60
2023-08-18T05:43:42.506Z,9.30
2023-08-18T05:46:10.097Z,4.40
2023-08-18T05:48:37.484Z,4.15
2023-08-18T05:51:04.932Z,4.95
2023-08-18T05:53:32.434Z,4.53
2023-08-18T05:55:59.845Z,4.43
2023-08-18T05:58:27.494Z,4.40
2023-08-18T06:00:54.550Z,4.38
2023-08-18T06:03:22.072Z,4.97
2023-08-18T06:05:50.304Z,5.07
2023-08-18T06:08:17.604Z,4.75
2023-08-18T06:10:44.698Z,3.67
2023-08-18T06:13:11.628Z,5.30
2023-08-18T06:15:39.501Z,9.98
2023-08-18T06:18:06.828Z,4.53
2023-08-18T06:20:33.758Z,5.82
2023-08-18T06:23:00.683Z,5.78
2023-08-18T06:25:27.973Z,4.80
2023-08-18T06:27:55.201Z,4.45
2023-08-18T06:30:22.132Z,5.28
2023-08-18T06:32:49.207Z,4.78
2023-08-18T06:35:16.284Z,4.63
2023-08-18T06:37:43.243Z,5.38
2023-08-18T06:40:10.672Z,6.00
2023-08-18T06:42:37.564Z,6.05
2023-08-18T06:45:06.555Z,5.35
2023-08-18T06:47:35.807Z,5.32
2023-08-18T06:50:06.937Z,7.18
2023-08-18T06:52:34.877Z,4.78
2023-08-18T06:55:03.144Z,4.97
2023-08-18T06:57:30.516Z,4.55
2023-08-18T06:59:57.388Z,5.75
2023-08-18T07:02:24.497Z,4.53
2023-08-18T07:04:52.826Z,5.97
2023-08-18T07:07:19.691Z,5.55
2023-08-18T07:09:46.577Z,5.05
2023-08-18T07:12:13.602Z,4.82
2023-08-18T07:14:40.545Z,5.95
2023-08-18T07:17:07.446Z,6.68
2023-08-18T07:19:34.361Z,6.22
2023-08-18T07:22:01.380Z,10.52
2023-08-18T07:24:29.830Z,8.25
2023-08-18T07:26:56.980Z,10.23
2023-08-18T07:29:24.275Z,9.02
2023-08-18T07:31:51.269Z,9.45
2023-08-18T07:34:18.232Z,15.18
2023-08-18T07:36:45.153Z,22.05
2023-08-18T07:39:12.022Z,24.65
2023-08-18T07:41:42.224Z,22.85
2023-08-18T07:44:09.708Z,25.60
2023-08-18T07:46:37.136Z,24.05
2023-08-18T07:49:05.248Z,23.15
2023-08-18T07:51:32.736Z,20.45
2023-08-18T07:53:59.627Z,24.63
2023-08-18T07:56:26.537Z,21.25
2023-08-18T07:58:55.849Z,23.30
2023-08-18T08:01:24.551Z,22.02
2023-08-18T08:03:51.588Z,19.35
2023-08-18T08:06:18.600Z,16.90
2023-08-18T08:08:45.543Z,22.00
2023-08-18T08:11:13.813Z,22.55
2023-08-18T08:13:41.193Z,23.38
2023-08-18T08:16:08.787Z,16.65
2023-08-18T08:18:35.773Z,17.42
2023-08-18T08:21:02.779Z,17.73
2023-08-18T08:23:29.715Z,19.40
2023-08-18T08:25:56.719Z,18.13
2023-08-18T08:28:23.778Z,15.18
2023-08-18T08:30:53.635Z,19.23
2023-08-18T08:33:20.651Z,14.75
2023-08-18T08:35:47.631Z,14.23
2023-08-18T08:38:14.564Z,14.30
2023-08-18T08:40:43.303Z,13.32
2023-08-18T08:43:10.580Z,15.88
2023-08-18T08:45:40.403Z,13.77
2023-08-18T08:48:11.961Z,14.98
2023-08-18T08:53:15.004Z,13.77
2023-08-18T08:55:45.768Z,16.33
2023-08-18T08:58:14.889Z,16.10
2023-08-18T09:00:43.266Z,12.80
2023-08-18T09:03:10.921Z,11.52
2023-08-18T09:05:37.885Z,13.75
2023-08-18T09:08:05.383Z,14.07
2023-08-18T09:10:34.276Z,12.15
2023-08-18T09:13:01.535Z,10.90
2023-08-18T09:15:29.001Z,12.88
2023-08-18T09:17:58.049Z,13.20
2023-08-18T09:20:26.593Z,13.23
2023-08-18T09:22:58.349Z,12.00
2023-08-18T09:25:28.308Z,11.15
2023-08-18T09:27:55.948Z,12.75
2023-08-18T09:30:25.366Z,12.07
2023-08-18T09:32:53.107Z,10.50
2023-08-18T09:35:23.299Z,10.68
2023-08-18T09:37:58.400Z,10.85
2023-08-18T09:40:27.135Z,9.98
2023-08-18T09:42:54.124Z,11.98
2023-08-18T09:45:27.643Z,11.77
2023-08-18T09:47:57.540Z,11.15
2023-08-18T09:50:32.131Z,10.15
2023-08-18T09:53:01.908Z,9.43
2023-08-18T09:55:43.622Z,8.82
2023-08-18T09:58:28.868Z,8.73
2023-08-18T10:00:58.038Z,8.25
2023-08-18T10:03:29.560Z,10.82
2023-08-18T10:05:57.286Z,12.05
2023-08-18T10:08:27.005Z,8.77
2023-08-18T10:10:53.920Z,10.50
2023-08-18T10:13:21.807Z,11.05
2023-08-18T10:15:49.683Z,11.40
2023-08-18T10:18:18.178Z,35.28
2023-08-18T10:20:53.798Z,40.78
2023-08-18T10:23:24.566Z,128.00
2023-08-18T10:25:53.302Z,75.55
2023-08-18T10:28:22.200Z,101.82
2023-08-18T10:30:58.088Z,131.40
2023-08-18T10:33:38.790Z,146.13
2023-08-18T10:36:07.583Z,177.25
2023-08-18T10:38:37.335Z,176.80
2023-08-18T10:41:04.763Z,171.88
2023-08-18T10:43:54.491Z,166.65
2023-08-18T10:46:25.563Z,156.23
2023-08-18T10:48:52.578Z,149.60
2023-08-18T10:51:19.572Z,143.68
2023-08-18T10:53:46.684Z,130.55
2023-08-18T10:56:13.672Z,134.18
2023-08-18T10:58:40.542Z,115.25
2023-08-18T11:01:10.336Z,110.00
2023-08-18T11:03:37.541Z,106.18
2023-08-18T11:06:04.538Z,104.80
2023-08-18T11:08:31.774Z,94.00
2023-08-18T11:10:58.665Z,93.90
2023-08-18T11:13:29.850Z,98.00
2023-08-18T11:15:58.573Z,93.15
2023-08-18T11:18:28.774Z,87.85
2023-08-18T11:20:56.806Z,88.43
2023-08-18T11:23:23.780Z,79.05
2023-08-18T11:25:51.830Z,79.55
2023-08-18T11:28:19.463Z,76.78
2023-08-18T11:30:46.451Z,81.53
2023-08-18T11:33:13.565Z,79.50
2023-08-18T11:35:40.504Z,70.88
2023-08-18T11:38:09.529Z,67.00
2023-08-18T11:40:39.320Z,64.30
2023-08-18T11:43:13.720Z,65.82
2023-08-18T11:45:41.292Z,60.65
2023-08-18T11:48:09.048Z,60.33
2023-08-18T11:50:38.760Z,55.83
2023-08-18T11:53:08.338Z,56.20
2023-08-18T11:55:41.470Z,49.20
2023-08-18T11:58:14.238Z,50.75
2023-08-18T12:00:43.470Z,57.03
2023-08-18T12:03:30.507Z,56.05
2023-08-18T12:05:59.732Z,46.50
2023-08-18T12:08:30.241Z,47.47
2023-08-18T12:10:58.923Z,49.65
2023-08-18T12:13:31.641Z,45.42
2023-08-18T12:15:58.861Z,44.47
2023-08-18T12:18:25.822Z,50.67
2023-08-18T12:20:52.776Z,43.75
2023-08-18T12:23:19.927Z,43.75
2023-08-18T12:25:46.865Z,43.20
2023-08-18T12:28:14.357Z,43.72
2023-08-18T12:30:41.217Z,41.03
2023-08-18T12:33:08.183Z,43.45
2023-08-18T12:35:35.148Z,39.33
2023-08-18T12:38:02.566Z,42.35
2023-08-18T12:40:29.469Z,40.20
2023-08-18T12:42:57.324Z,37.13
2023-08-18T12:45:24.357Z,36.08
2023-08-18T12:47:51.324Z,36.83
2023-08-18T12:50:18.353Z,36.92
2023-08-18T12:52:45.309Z,39.55
2023-08-18T12:55:12.430Z,36.50
2023-08-18T12:57:39.353Z,39.53
2023-08-18T13:00:07.366Z,35.70
2023-08-18T13:02:34.474Z,31.52
2023-08-18T13:05:02.055Z,31.92
2023-08-18T13:07:29.369Z,31.30
2023-08-18T13:09:56.247Z,31.90
2023-08-18T13:12:23.622Z,26.95
2023-08-18T13:14:50.716Z,28.38
2023-08-18T13:17:17.664Z,27.13
2023-08-18T13:19:48.923Z,28.95
2023-08-18T13:22:16.419Z,26.35
2023-08-18T13:24:43.686Z,29.67
2023-08-18T13:27:10.964Z,23.17
2023-08-18T13:29:38.385Z,27.45
2023-08-18T13:32:06.019Z,26.23
2023-08-18T13:34:32.954Z,24.60
2023-08-18T13:36:59.935Z,22.15
2023-08-18T13:39:26.923Z,21.35
2023-08-18T13:41:53.818Z,21.98
2023-08-18T13:44:20.824Z,21.02
2023-08-18T13:46:47.737Z,20.02
2023-08-18T13:49:14.700Z,20.67
2023-08-18T13:51:41.944Z,19.98
2023-08-18T13:54:13.333Z,21.50
2023-08-18T13:56:43.440Z,16.05
2023-08-18T13:59:11.865Z,16.38
2023-08-18T14:01:38.967Z,17.27
2023-08-18T14:04:06.313Z,16.27
2023-08-18T14:06:33.235Z,18.00
2023-08-18T14:09:01.942Z,18.02
2023-08-18T14:11:29.119Z,16.02
2023-08-18T14:13:56.315Z,16.75
2023-08-18T14:16:23.290Z,16.35
2023-08-18T14:18:50.558Z,15.93
2023-08-18T14:21:17.432Z,14.80
2023-08-18T14:23:44.359Z,16.90
2023-08-18T14:26:11.319Z,17.50
2023-08-18T14:28:38.697Z,17.08
2023-08-18T14:31:10.762Z,14.90
2023-08-18T14:33:46.164Z,15.82
2023-08-18T14:36:16.400Z,16.42
2023-08-18T14:38:44.876Z,15.18
2023-08-18T14:41:12.200Z,14.38
2023-08-18T14:43:40.274Z,14.88
2023-08-18T14:46:07.473Z,12.98
2023-08-18T14:48:34.825Z,15.15
2023-08-18T14:51:02.261Z,13.23
2023-08-18T14:53:29.259Z,14.07
2023-08-18T14:55:56.243Z,14.38
2023-08-18T14:58:28.377Z,15.82
2023-08-18T15:00:55.965Z,13.60
2023-08-18T15:03:23.168Z,15.13
2023-08-18T15:05:50.791Z,13.32
2023-08-18T15:08:18.060Z,14.10
2023-08-18T15:10:46.673Z,14.55
2023-08-18T15:13:13.823Z,12.63
2023-08-18T15:15:40.828Z,12.98
2023-08-18T15:18:07.940Z,14.88
2023-08-18T15:20:34.886Z,13.02
2023-08-18T15:23:01.995Z,11.85
2023-08-18T15:25:30.691Z,12.98
2023-08-18T15:27:57.662Z,13.02
2023-08-18T15:30:24.554Z,12.98
2023-08-18T15:32:51.465Z,13.55
2023-08-18T15:35:18.468Z,15.00
2023-08-18T15:37:45.463Z,12.93
2023-08-18T15:40:12.729Z,12.60
2023-08-18T15:42:39.715Z,13.98
2023-08-18T15:45:07.568Z,13.93
2023-08-18T15:47:34.602Z,15.18
2023-08-18T15:50:01.935Z,13.65
2023-08-18T15:52:28.770Z,13.10
2023-08-18T15:54:55.662Z,14.02
2023-08-18T15:57:22.647Z,14.98
2023-08-18T15:59:49.543Z,13.65
2023-08-18T16:02:16.492Z,13.85
2023-08-18T16:04:43.444Z,15.35
2023-08-18T16:07:10.450Z,14.60
2023-08-18T16:09:37.381Z,14.25
2023-08-18T16:12:04.760Z,14.57
2023-08-18T16:17:01.634Z,16.58
2023-08-18T16:19:29.593Z,17.20
2023-08-18T16:21:56.616Z,15.93
2023-08-18T16:24:23.625Z,16.67
2023-08-18T16:26:52.514Z,15.18
2023-08-18T16:29:19.708Z,15.45
2023-08-18T16:31:46.801Z,13.95
2023-08-18T16:34:13.733Z,16.27
2023-08-18T16:36:40.669Z,17.00
2023-08-18T16:39:07.534Z,14.45
2023-08-18T16:41:34.483Z,15.52
2023-08-18T16:44:01.505Z,16.73
2023-08-18T16:46:28.432Z,15.60
2023-08-18T16:48:55.910Z,17.27
2023-08-18T16:51:22.870Z,16.75
2023-08-18T16:53:49.819Z,16.40
2023-08-18T16:56:16.827Z,15.95
2023-08-18T16:58:43.779Z,15.27
2023-08-18T17:01:10.836Z,14.40
2023-08-18T17:03:37.889Z,14.98
2023-08-18T17:06:04.908Z,16.63
2023-08-18T17:08:31.913Z,16.20
2023-08-18T17:11:00.354Z,15.57
2023-08-18T17:13:27.736Z,17.10
2023-08-18T17:15:54.775Z,15.63
2023-08-18T17:18:24.604Z,15.25
2023-08-18T17:20:53.150Z,17.77
2023-08-18T17:23:21.445Z,15.65
2023-08-18T17:25:50.059Z,18.52
2023-08-18T17:28:17.703Z,14.88
2023-08-18T17:30:45.977Z,19.77
2023-08-18T17:33:14.496Z,15.52
2023-08-18T17:35:44.803Z,18.27
2023-08-18T17:38:11.894Z,17.85
2023-08-18T17:40:39.769Z,17.33
2023-08-18T17:43:06.739Z,17.10
2023-08-18T17:45:36.115Z,16.25
2023-08-18T17:48:03.413Z,16.02
2023-08-18T17:50:30.382Z,18.90
2023-08-18T17:52:57.975Z,20.13
2023-08-18T17:55:25.647Z,14.77
2023-08-18T17:57:52.641Z,14.68
2023-08-18T18:00:19.992Z,18.05
2023-08-18T18:02:47.402Z,17.55
2023-08-18T18:05:19.460Z,18.75
2023-08-18T18:07:46.407Z,19.23
2023-08-18T18:10:13.433Z,19.20
2023-08-18T18:12:40.910Z,16.95
2023-08-18T18:15:08.791Z,22.30
2023-08-18T18:17:36.936Z,18.02
2023-08-18T18:20:04.804Z,17.48
2023-08-18T18:22:32.629Z,15.65
2023-08-18T18:24:59.591Z,16.45
2023-08-18T18:27:26.531Z,15.20
2023-08-18T18:29:53.802Z,17.85
2023-08-18T18:32:20.780Z,15.30
2023-08-18T18:34:47.751Z,15.85
2023-08-18T18:37:14.626Z,15.68
2023-08-18T18:39:42.030Z,15.93
2023-08-18T18:42:09.548Z,15.73
2023-08-18T18:44:37.286Z,14.18
2023-08-18T18:47:05.068Z,14.00
2023-08-18T18:49:32.096Z,13.93
2023-08-18T18:51:59.084Z,15.82
2023-08-18T18:54:26.211Z,12.90
2023-08-18T18:56:53.153Z,16.55
2023-08-18T18:59:20.291Z,14.63
2023-08-18T19:01:47.185Z,14.50
2023-08-18T19:04:14.222Z,15.80
2023-08-18T19:06:41.908Z,16.98
2023-08-18T19:09:10.868Z,16.42
2023-08-18T19:11:37.767Z,14.05
2023-08-18T19:14:04.759Z,14.60
2023-08-18T19:16:31.646Z,14.57
2023-08-18T19:18:58.575Z,13.43
2023-08-18T19:21:28.750Z,14.00
2023-08-18T19:23:55.994Z,12.77
2023-08-18T19:26:23.533Z,13.50
2023-08-18T19:28:55.324Z,12.38
2023-08-18T19:31:23.026Z,13.52
2023-08-18T19:33:50.020Z,13.93
2023-08-18T19:36:19.999Z,12.45
2023-08-18T19:38:47.566Z,12.90
2023-08-18T19:41:14.717Z,13.55
2023-08-18T19:43:41.729Z,11.57
2023-08-18T19:46:08.827Z,11.82
2023-08-18T19:48:36.079Z,12.30
2023-08-18T19:51:04.136Z,12.10
2023-08-18T19:53:31.205Z,12.07
2023-08-18T19:55:58.239Z,13.55
2023-08-18T19:58:25.774Z,14.88
2023-08-18T20:00:52.765Z,14.32
2023-08-18T20:03:19.748Z,12.32
2023-08-18T20:05:46.756Z,12.98
2023-08-18T20:08:13.928Z,14.50
2023-08-18T20:10:42.177Z,12.15
2023-08-18T20:13:09.108Z,13.98
2023-08-18T20:15:36.069Z,13.68
2023-08-18T20:18:03.469Z,13.40
2023-08-18T20:20:30.579Z,12.75
2023-08-18T20:22:58.859Z,14.63
2023-08-18T20:25:27.020Z,15.15
2023-08-18T20:27:54.399Z,16.02
2023-08-18T20:30:23.202Z,13.90
2023-08-18T20:32:55.126Z,15.32
2023-08-18T20:35:25.819Z,15.75
2023-08-18T20:37:53.556Z,16.23
2023-08-18T20:40:20.886Z,15.38
2023-08-18T20:42:47.748Z,14.55
2023-08-18T20:45:14.686Z,15.63
2023-08-18T20:47:41.647Z,18.33
2023-08-18T20:50:11.479Z,15.32
2023-08-18T20:52:38.768Z,16.88
2023-08-18T20:55:08.338Z,18.40
2023-08-18T20:57:35.556Z,15.88
2023-08-18T21:00:03.939Z,18.05
2023-08-18T21:02:31.579Z,15.60
2023-08-18T21:05:00.454Z,17.65
2023-08-18T21:07:27.646Z,17.27
2023-08-18T21:09:54.639Z,17.20
2023-08-18T21:12:21.767Z,17.30
2023-08-18T21:14:48.639Z,17.40
2023-08-18T21:17:15.780Z,18.45
2023-08-18T21:19:42.749Z,17.23
2023-08-18T21:22:09.742Z,18.38
2023-08-18T21:24:36.726Z,18.52
2023-08-18T21:27:04.037Z,18.15
2023-08-18T21:29:31.072Z,17.45
2023-08-18T21:31:58.066Z,15.52
2023-08-18T21:34:25.223Z,14.90
2023-08-18T21:36:52.122Z,19.92
2023-08-18T21:39:19.441Z,13.65
2023-08-18T21:41:46.494Z,16.05
2023-08-18T21:44:13.438Z,13.65
2023-08-18T21:46:40.331Z,16.08
2023-08-18T21:49:07.754Z,14.63
2023-08-18T21:51:34.819Z,16.92
2023-08-18T21:54:01.929Z,17.25
2023-08-18T21:56:28.974Z,14.35
2023-08-18T21:58:55.918Z,12.82
2023-08-18T22:01:22.941Z,14.07
2023-08-18T22:03:51.834Z,15.88
2023-08-18T22:06:18.952Z,13.52
2023-08-18T22:08:45.922Z,15.20
2023-08-18T22:11:13.965Z,14.75
2023-08-18T22:13:41.523Z,16.30
2023-08-18T22:16:08.594Z,16.05
2023-08-18T22:18:37.295Z,13.38
2023-08-18T22:21:04.591Z,13.75
2023-08-18T22:23:34.781Z,14.23
2023-08-18T22:26:01.899Z,13.27
2023-08-18T22:28:29.396Z,13.80
2023-08-18T22:30:56.564Z,13.00
2023-08-18T22:33:24.884Z,12.77
2023-08-18T22:35:58.968Z,15.48
2023-08-18T22:38:26.067Z,14.60
2023-08-18T22:41:04.127Z,13.80
2023-08-18T22:43:31.931Z,12.95
2023-08-18T22:46:01.187Z,12.23
2023-08-18T22:48:28.219Z,12.25
2023-08-18T22:50:55.058Z,13.10
2023-08-18T22:53:22.005Z,14.45
2023-08-18T22:55:49.093Z,14.43
2023-08-18T22:58:16.062Z,14.73
2023-08-18T23:00:43.216Z,13.00
2023-08-18T23:03:10.112Z,12.43
2023-08-18T23:05:37.153Z,14.10
2023-08-18T23:08:04.501Z,11.15
2023-08-18T23:10:31.393Z,14.13
2023-08-18T23:12:58.319Z,13.20
2023-08-18T23:15:27.028Z,11.32
2023-08-18T23:17:54.108Z,13.65
2023-08-18T23:20:21.127Z,14.38
2023-08-18T23:22:48.013Z,13.48
2023-08-18T23:25:15.030Z,12.82
2023-08-18T23:27:42.015Z,12.23
2023-08-18T23:30:10.679Z,13.50
2023-08-18T23:32:37.611Z,11.80
2023-08-18T23:35:05.356Z,12.70
2023-08-18T23:37:32.426Z,12.88
2023-08-18T23:39:59.750Z,13.63
2023-08-18T23:42:26.624Z,12.43
2023-08-18T23:44:53.503Z,13.50
2023-08-18T23:47:20.456Z,12.30
2023-08-18T23:49:47.329Z,12.02
2023-08-18T23:52:14.238Z,11.27
2023-08-18T23:54:41.167Z,13.05
2023-08-18T23:57:08.041Z,11.10
2023-08-18T23:59:34.963Z,13.27
